Chenango Forks, New York
Current Conditions -  °F | °C
As of 7:53 PM on Monday 20 Oct 2014 (Local Time) from KBGM Reporting Station
Overcast Overcast  
Wind Chill: 47°   Ceiling: 8000
Heat Index: 49°   Visibility: 10mi
Dew Point: 35°   Wind: 5mph
Humidity: 59%   Direction: 190°S
Pressure: 29.9"   Gusts: NA
Location:  42.24°N, 75.85°W
Report Text: KBGM 202353Z 19004KT 10SM OVC080 09/02 A2990 RMK AO2 SLP136 60000 T00940017 10106 20094 53001
Loading
Personal Weather Stations






























Interactive Weather Map
Tropical Storm Tracking
New forecast layout! Learn more

10-Day Weather Forecast

Advertisements
Track Severe Weather on mobile